createdAt,value
2024-02-16T00:02:21.323Z,11.75
2024-02-16T00:05:26.431Z,12.70
2024-02-16T00:08:31.390Z,13.93
2024-02-16T00:11:36.421Z,15.02
2024-02-16T00:14:41.680Z,14.02
2024-02-16T00:17:47.083Z,15.80
2024-02-16T00:20:52.153Z,13.90
2024-02-16T00:23:56.926Z,15.90
2024-02-16T00:30:08.108Z,16.80
2024-02-16T00:33:13.333Z,19.30
2024-02-16T00:36:17.955Z,19.20
2024-02-16T00:42:29.484Z,14.10
2024-02-16T00:45:34.602Z,21.88
2024-02-16T00:51:44.704Z,21.60
2024-02-16T00:57:54.409Z,16.83
2024-02-16T01:00:59.189Z,18.67
2024-02-16T01:04:05.175Z,16.02
2024-02-16T01:07:10.693Z,15.40
2024-02-16T01:10:15.480Z,15.55
2024-02-16T01:13:20.299Z,15.18
2024-02-16T01:19:31.349Z,15.10
2024-02-16T01:22:36.116Z,14.43
2024-02-16T01:25:41.011Z,13.25
2024-02-16T01:28:46.148Z,15.98
2024-02-16T01:34:55.540Z,17.58
2024-02-16T01:38:00.304Z,17.02
2024-02-16T01:44:10.888Z,17.70
2024-02-16T01:47:15.969Z,18.27
2024-02-16T01:53:25.390Z,16.13
2024-02-16T01:56:30.493Z,16.45
2024-02-16T01:59:37.396Z,16.10
2024-02-16T02:02:42.667Z,15.63
2024-02-16T02:05:47.950Z,15.30
2024-02-16T02:08:53.010Z,15.10
2024-02-16T02:11:58.046Z,14.65
2024-02-16T02:18:09.027Z,15.68
2024-02-16T02:21:15.500Z,13.68
2024-02-16T02:24:21.868Z,14.23
2024-02-16T02:27:26.811Z,14.40
2024-02-16T02:30:32.121Z,13.50
2024-02-16T02:36:42.324Z,12.52
2024-02-16T02:39:47.304Z,13.32
2024-02-16T02:42:51.963Z,14.77
2024-02-16T02:45:57.206Z,14.40
2024-02-16T02:49:02.185Z,15.73
2024-02-16T02:52:07.788Z,14.23
2024-02-16T02:55:13.064Z,14.40
2024-02-16T02:58:18.944Z,13.25
2024-02-16T03:01:24.177Z,14.45
2024-02-16T03:04:29.276Z,13.80
2024-02-16T03:07:34.344Z,12.82
2024-02-16T03:10:40.334Z,14.32
2024-02-16T03:13:45.382Z,13.70
2024-02-16T03:19:56.310Z,12.27
2024-02-16T03:23:01.699Z,13.75
2024-02-16T03:29:11.008Z,14.10
2024-02-16T03:35:20.546Z,14.50
2024-02-16T03:38:25.808Z,14.70
2024-02-16T03:41:30.450Z,15.15
2024-02-16T03:44:35.349Z,15.88
2024-02-16T03:47:43.049Z,16.80
2024-02-16T03:50:47.853Z,17.27
2024-02-16T03:53:52.745Z,18.02
2024-02-16T04:00:07.031Z,18.02
2024-02-16T04:03:18.976Z,19.27
2024-02-16T04:06:23.882Z,20.52
2024-02-16T04:12:33.759Z,19.55
2024-02-16T04:15:39.436Z,18.63
2024-02-16T04:18:44.727Z,20.65
2024-02-16T04:21:49.770Z,19.20
2024-02-16T04:24:54.676Z,19.35
2024-02-16T04:31:04.047Z,19.25
2024-02-16T04:37:14.924Z,19.80
2024-02-16T04:40:20.216Z,19.20
2024-02-16T04:43:24.973Z,19.67
2024-02-16T04:49:35.119Z,19.42
2024-02-16T04:55:49.629Z,19.23
2024-02-16T05:01:59.698Z,17.05
2024-02-16T05:08:09.633Z,12.88
2024-02-16T05:11:14.443Z,16.80
2024-02-16T05:14:19.093Z,18.10
2024-02-16T05:20:29.009Z,18.20
2024-02-16T05:23:33.918Z,15.88
2024-02-16T05:29:43.762Z,12.25
2024-02-16T05:32:50.171Z,16.17
2024-02-16T05:35:59.734Z,16.83
2024-02-16T05:39:21.683Z,18.30
2024-02-16T05:42:27.217Z,17.77
2024-02-16T05:45:32.557Z,17.00
2024-02-16T05:52:04.946Z,17.67
2024-02-16T05:55:10.314Z,15.73
2024-02-16T05:58:15.119Z,16.65
2024-02-16T06:01:19.953Z,15.60
2024-02-16T06:05:02.522Z,18.10
2024-02-16T06:08:32.451Z,16.95
2024-02-16T06:11:40.212Z,15.02
2024-02-16T06:14:45.166Z,15.98
2024-02-16T06:17:51.565Z,15.43
2024-02-16T06:20:56.863Z,16.25
2024-02-16T06:24:01.667Z,14.80
2024-02-16T06:27:06.551Z,16.33
2024-02-16T06:30:14.540Z,17.33
2024-02-16T06:33:19.895Z,15.77
2024-02-16T06:36:24.897Z,15.45
2024-02-16T06:39:32.124Z,14.35
2024-02-16T06:42:37.410Z,15.20
2024-02-16T06:48:47.948Z,13.82
2024-02-16T06:51:53.738Z,14.07
2024-02-16T06:54:59.395Z,14.35
2024-02-16T06:58:04.115Z,14.00
2024-02-16T07:01:10.021Z,14.32
2024-02-16T07:04:15.881Z,14.20
2024-02-16T07:07:21.170Z,15.93
2024-02-16T07:10:25.966Z,13.95
2024-02-16T07:13:31.306Z,13.65
2024-02-16T07:19:40.991Z,14.20
2024-02-16T07:25:52.319Z,12.95
2024-02-16T07:28:57.169Z,13.95
2024-02-16T07:35:07.486Z,13.05
2024-02-16T07:38:12.671Z,14.13
2024-02-16T07:41:17.077Z,13.70
2024-02-16T07:47:26.567Z,12.25
2024-02-16T07:50:31.335Z,11.02
2024-02-16T07:53:37.321Z,12.35
2024-02-16T07:56:42.199Z,12.93
2024-02-16T08:02:51.782Z,10.70
2024-02-16T08:09:01.540Z,10.40
2024-02-16T08:15:12.945Z,10.35
2024-02-16T08:21:23.809Z,11.38
2024-02-16T08:24:28.899Z,10.90
2024-02-16T08:27:33.683Z,12.57
2024-02-16T08:33:48.163Z,10.75
2024-02-16T08:36:53.928Z,11.07
2024-02-16T08:39:58.793Z,11.30
2024-02-16T08:43:04.323Z,11.68
2024-02-16T08:46:09.256Z,11.63
2024-02-16T08:49:14.331Z,11.35
2024-02-16T08:52:19.598Z,9.77
2024-02-16T08:55:24.424Z,11.45
2024-02-16T08:58:29.472Z,11.10
2024-02-16T09:01:34.986Z,10.77
2024-02-16T09:04:39.826Z,11.52
2024-02-16T09:07:44.908Z,10.60
2024-02-16T09:10:50.542Z,10.52
2024-02-16T09:13:55.620Z,9.80
2024-02-16T09:17:00.184Z,9.75
2024-02-16T09:20:06.133Z,10.73
2024-02-16T09:23:11.271Z,9.68
2024-02-16T09:29:22.517Z,9.90
2024-02-16T09:32:27.324Z,8.98
2024-02-16T09:35:32.651Z,9.00
2024-02-16T09:38:37.797Z,10.65
2024-02-16T09:41:51.369Z,8.88
2024-02-16T09:44:56.897Z,8.75
2024-02-16T09:48:07.455Z,7.55
2024-02-16T09:51:12.772Z,8.27
2024-02-16T09:54:17.499Z,8.73
2024-02-16T09:57:22.211Z,9.20
2024-02-16T10:03:36.458Z,8.57
2024-02-16T10:06:52.788Z,8.23
2024-02-16T10:09:58.025Z,8.43
2024-02-16T10:13:06.396Z,8.18
2024-02-16T10:16:12.934Z,6.20
2024-02-16T10:19:19.771Z,7.43
2024-02-16T10:22:24.498Z,6.75
2024-02-16T10:28:37.343Z,7.15
2024-02-16T10:31:42.450Z,6.65
2024-02-16T10:34:47.924Z,5.55
2024-02-16T10:37:53.221Z,5.80
2024-02-16T10:44:02.942Z,5.72
2024-02-16T10:47:07.439Z,6.03
2024-02-16T10:53:22.250Z,5.68
2024-02-16T10:56:37.271Z,6.93
2024-02-16T10:59:47.360Z,6.40
2024-02-16T11:02:53.003Z,5.60
2024-02-16T11:06:00.054Z,5.28
2024-02-16T11:09:11.422Z,4.93
2024-02-16T11:12:17.480Z,4.55
2024-02-16T11:15:42.978Z,4.32
2024-02-16T11:18:50.007Z,4.75
2024-02-16T11:21:58.742Z,3.88
2024-02-16T11:25:06.684Z,4.35
2024-02-16T11:28:11.624Z,3.47
2024-02-16T11:31:16.311Z,3.92
2024-02-16T11:34:24.670Z,3.85
2024-02-16T11:37:29.838Z,4.03
2024-02-16T11:43:40.718Z,3.85
2024-02-16T11:49:50.998Z,2.00
2024-02-16T11:52:56.465Z,3.38
2024-02-16T11:56:01.191Z,4.20
2024-02-16T12:02:19.834Z,3.53
2024-02-16T12:05:25.143Z,4.22
2024-02-16T12:11:34.910Z,3.47
2024-02-16T12:14:39.701Z,3.22
2024-02-16T12:20:59.775Z,2.72
2024-02-16T12:24:04.916Z,3.72
2024-02-16T12:27:09.884Z,3.10
2024-02-16T12:33:20.029Z,3.25
2024-02-16T12:36:25.052Z,3.35
2024-02-16T12:39:34.991Z,3.95
2024-02-16T12:42:40.497Z,3.72
2024-02-16T12:48:51.001Z,3.65
2024-02-16T12:51:55.958Z,2.83
2024-02-16T12:55:00.848Z,3.17
2024-02-16T13:01:19.531Z,3.30
2024-02-16T13:04:32.549Z,3.42
2024-02-16T13:07:39.135Z,3.60
2024-02-16T13:10:45.091Z,3.58
2024-02-16T13:13:50.033Z,3.80
2024-02-16T13:16:55.163Z,3.92
2024-02-16T13:20:07.661Z,3.33
2024-02-16T13:23:12.937Z,3.53
2024-02-16T13:32:28.486Z,3.33
2024-02-16T13:35:33.712Z,2.97
2024-02-16T13:38:38.587Z,3.20
2024-02-16T13:41:45.592Z,3.17
2024-02-16T13:44:50.706Z,3.72
2024-02-16T13:47:55.432Z,3.63
2024-02-16T13:54:05.802Z,2.92
2024-02-16T14:00:17.476Z,3.65
2024-02-16T14:03:22.647Z,3.45
2024-02-16T14:06:27.854Z,3.00
2024-02-16T14:09:34.391Z,3.45
2024-02-16T14:12:39.597Z,2.92
2024-02-16T14:15:44.353Z,2.80
2024-02-16T14:18:52.170Z,3.13
2024-02-16T14:21:57.660Z,3.00
2024-02-16T14:25:02.734Z,3.13
2024-02-16T14:31:15.127Z,3.63
2024-02-16T14:34:19.798Z,3.70
2024-02-16T14:40:29.503Z,2.58
2024-02-16T14:46:39.230Z,2.85
2024-02-16T14:49:45.587Z,4.43
2024-02-16T14:52:50.284Z,3.38
2024-02-16T14:55:55.171Z,3.40
2024-02-16T15:02:04.787Z,3.85
2024-02-16T15:05:10.058Z,3.72
2024-02-16T15:08:15.914Z,4.13
2024-02-16T15:11:20.677Z,3.03
2024-02-16T15:14:25.581Z,3.50
2024-02-16T15:17:30.604Z,3.20
2024-02-16T15:24:55.560Z,3.55
2024-02-16T15:28:00.458Z,2.75
2024-02-16T15:31:06.020Z,4.07
2024-02-16T15:34:12.570Z,3.13
2024-02-16T15:37:17.995Z,3.00
2024-02-16T15:40:22.564Z,3.85
2024-02-16T15:43:28.979Z,6.88
2024-02-16T15:46:33.797Z,4.68
2024-02-16T15:49:38.893Z,5.53
2024-02-16T15:52:43.586Z,3.78
2024-02-16T15:59:00.312Z,5.18
2024-02-16T16:02:05.130Z,3.70
2024-02-16T16:05:10.245Z,4.22
2024-02-16T16:08:15.393Z,3.15
2024-02-16T16:11:20.273Z,3.03
2024-02-16T16:14:24.859Z,3.47
2024-02-16T16:20:35.668Z,3.50
2024-02-16T16:23:40.680Z,3.58
2024-02-16T16:29:50.657Z,3.53
2024-02-16T16:36:04.305Z,3.15
2024-02-16T16:39:09.416Z,2.83
2024-02-16T16:45:20.165Z,3.08
2024-02-16T16:48:25.973Z,2.50
2024-02-16T16:51:30.893Z,2.95
2024-02-16T16:54:37.358Z,3.08
2024-02-16T16:57:42.570Z,2.72
2024-02-16T17:00:47.442Z,3.33
2024-02-16T17:06:57.595Z,2.40
2024-02-16T17:10:02.542Z,2.88
2024-02-16T17:13:07.514Z,3.85
2024-02-16T17:16:13.151Z,3.40
2024-02-16T17:19:17.618Z,3.35
2024-02-16T17:25:27.266Z,4.00
2024-02-16T17:28:33.914Z,4.10
2024-02-16T17:31:39.090Z,4.93
2024-02-16T17:34:44.072Z,5.20
2024-02-16T17:37:48.966Z,5.60
2024-02-16T17:40:53.825Z,5.40
2024-02-16T17:47:03.588Z,6.30
2024-02-16T17:50:10.715Z,5.95
2024-02-16T17:53:15.801Z,6.97
2024-02-16T17:56:21.316Z,7.45
2024-02-16T17:59:26.083Z,6.65
2024-02-16T18:02:39.524Z,7.43
2024-02-16T18:05:46.943Z,6.95
2024-02-16T18:11:57.096Z,8.48
2024-02-16T18:15:02.010Z,7.53
2024-02-16T18:18:07.003Z,9.13
2024-02-16T18:21:12.050Z,8.38
2024-02-16T18:27:22.329Z,7.75
2024-02-16T18:30:27.204Z,8.02
2024-02-16T18:33:32.319Z,9.40
2024-02-16T18:36:37.950Z,8.90
2024-02-16T18:39:43.146Z,9.30
2024-02-16T18:42:51.944Z,11.40
2024-02-16T18:45:57.995Z,11.60
2024-02-16T18:49:03.421Z,11.65
2024-02-16T18:52:08.956Z,12.00
2024-02-16T18:55:14.047Z,12.38
2024-02-16T18:58:18.759Z,15.15
2024-02-16T19:01:23.810Z,15.70
2024-02-16T19:04:29.443Z,15.65
2024-02-16T19:07:34.728Z,16.27
2024-02-16T19:10:41.100Z,16.20
2024-02-16T19:13:46.620Z,13.45
2024-02-16T19:16:52.227Z,15.57
2024-02-16T19:19:56.705Z,13.82
2024-02-16T19:23:01.663Z,14.55
2024-02-16T19:29:14.258Z,11.02
2024-02-16T19:32:19.236Z,9.40
2024-02-16T19:38:28.769Z,7.47
2024-02-16T19:41:33.534Z,7.43
2024-02-16T19:44:38.467Z,6.97
2024-02-16T19:47:44.935Z,5.72
2024-02-16T19:50:50.079Z,5.60
2024-02-16T19:56:59.754Z,5.03
2024-02-16T20:00:05.261Z,5.80
2024-02-16T20:03:11.727Z,4.93
2024-02-16T20:06:16.766Z,4.97
2024-02-16T20:09:21.505Z,4.80
2024-02-16T20:12:26.398Z,5.97
2024-02-16T20:18:36.576Z,5.43
2024-02-16T20:21:41.341Z,5.05
2024-02-16T20:24:45.967Z,4.70
2024-02-16T20:27:51.031Z,4.57
2024-02-16T20:37:06.936Z,3.83
2024-02-16T20:40:12.130Z,4.63
2024-02-16T20:43:17.289Z,5.28
2024-02-16T20:46:22.404Z,5.38
2024-02-16T20:49:27.190Z,5.05
2024-02-16T20:52:32.089Z,4.85
2024-02-16T20:55:37.042Z,4.72
2024-02-16T20:58:41.916Z,4.70
2024-02-16T21:02:11.721Z,4.95
2024-02-16T21:05:17.960Z,3.80
2024-02-16T21:08:22.689Z,4.10
2024-02-16T21:14:35.570Z,4.15
2024-02-16T21:17:40.671Z,4.57
2024-02-16T21:20:45.467Z,4.65
2024-02-16T21:23:50.352Z,4.90
2024-02-16T21:26:55.364Z,5.10
2024-02-16T21:30:01.259Z,5.65
2024-02-16T21:33:08.372Z,5.43
2024-02-16T21:36:15.903Z,5.10
2024-02-16T21:39:21.528Z,4.47
2024-02-16T21:42:26.513Z,4.95
2024-02-16T21:45:31.420Z,4.47
2024-02-16T21:51:45.467Z,3.60
2024-02-16T21:54:50.375Z,3.53
2024-02-16T21:57:55.285Z,3.17
2024-02-16T22:01:00.465Z,2.85
2024-02-16T22:04:05.611Z,2.30
2024-02-16T22:07:12.035Z,2.55
2024-02-16T22:10:17.412Z,2.13
2024-02-16T22:13:22.166Z,1.88
2024-02-16T22:16:26.948Z,2.50
2024-02-16T22:19:32.017Z,1.83
2024-02-16T22:22:36.673Z,2.90
2024-02-16T22:26:04.513Z,2.22
2024-02-16T22:29:09.241Z,3.25
2024-02-16T22:32:17.707Z,2.13
2024-02-16T22:35:23.644Z,2.10
2024-02-16T22:38:29.734Z,2.33
2024-02-16T22:41:34.749Z,2.00
2024-02-16T22:47:47.744Z,2.45
2024-02-16T22:50:53.729Z,2.15
2024-02-16T22:53:58.584Z,1.52
2024-02-16T22:57:03.397Z,2.05
2024-02-16T23:00:24.375Z,2.15
2024-02-16T23:03:29.510Z,2.20
2024-02-16T23:06:34.727Z,2.00
2024-02-16T23:09:41.438Z,2.20
2024-02-16T23:12:47.464Z,2.22
2024-02-16T23:15:52.739Z,1.65
2024-02-16T23:18:57.818Z,1.67
2024-02-16T23:25:36.570Z,1.20
2024-02-16T23:28:43.302Z,1.35
2024-02-16T23:31:48.283Z,1.42
2024-02-16T23:34:54.104Z,1.42
2024-02-16T23:37:59.300Z,0.80
2024-02-16T23:44:09.060Z,0.43
2024-02-16T23:47:14.035Z,1.08
2024-02-16T23:53:24.443Z,0.63
2024-02-16T23:56:30.266Z,0.77
2024-02-16T23:59:34.963Z,0.93
